Terminal Aerodrome Forecast
Issued by NWS

Home | Current Version | Previous Version | Text Only | Print | Product List | Glossary On
Versions: 1 2 3 4 5 6 7 8 9 10 11 12 13 14 15 16 17 18 19 20 21 22 23 24 25 26 27 28 29 30 31 32 33 34 35 36 37 38 39
000
FTAK31 PANC 122322
TAFATK
TAF
PATK 122322Z 1300/1324 18005KT P6SM VCSH FEW020 BKN060
     FM130300 19005KT P6SM -SHRA SCT020 BKN060=

USA.gov is the U.S. government's official web portal to all federal, state and local government web resources and services.